Time;durP1;ratioP1;P1;durP2;ratioP2;P2;SDS_P1;SDS_P2;PMS_P1;PMS_P2;Temp;Humidity;BMP_temperature;BMP_pressure;BME280_temperature;BME280_humidity;BME280_pressure;Samples;Min_cycle;Max_cycle;Signal;HPM_P1;HPM_P2
2020/12/10 00:00:21;;;;;;;18.58;12.25;;;1.30;99.90;;;;;;5045722;28;20209;-73
2020/12/10 00:02:47;;;;;;;16.98;12.20;;;1.30;99.90;;;;;;5045116;28;20233;-73
2020/12/10 00:05:13;;;;;;;20.45;12.23;;;1.30;99.90;;;;;;5045946;28;20676;-73
2020/12/10 00:07:40;;;;;;;15.52;11.25;;;1.30;99.90;;;;;;5046112;28;20228;-73
2020/12/10 00:10:07;;;;;;;16.83;11.75;;;1.30;99.90;;;;;;5045702;28;20197;-74
2020/12/10 00:12:34;;;;;;;17.60;11.55;;;1.20;99.90;;;;;;5045432;28;20316;-73
2020/12/10 00:15:00;;;;;;;18.65;12.80;;;1.30;99.90;;;;;;5045674;28;20912;-73
2020/12/10 00:17:29;;;;;;;18.15;12.00;;;1.30;99.90;;;;;;5045490;28;20201;-74
2020/12/10 00:19:56;;;;;;;20.13;13.18;;;1.20;99.90;;;;;;5045903;28;20271;-73
2020/12/10 00:22:23;;;;;;;22.20;13.70;;;1.20;99.90;;;;;;5044785;28;20239;-74
2020/12/10 00:24:49;;;;;;;19.75;13.05;;;1.20;99.90;;;;;;5045842;28;20209;-74
2020/12/10 00:27:17;;;;;;;19.60;13.43;;;1.20;99.90;;;;;;5045874;28;20959;-74
2020/12/10 00:29:45;;;;;;;14.55;11.30;;;1.20;99.90;;;;;;5046351;28;20209;-74
2020/12/10 00:32:13;;;;;;;19.08;12.57;;;1.30;99.90;;;;;;5045672;28;20221;-74
2020/12/10 00:34:40;;;;;;;19.33;11.82;;;1.20;99.90;;;;;;5046496;28;20213;-74
2020/12/10 00:37:06;;;;;;;21.80;14.02;;;1.30;99.90;;;;;;5046336;28;20904;-74
2020/12/10 00:39:34;;;;;;;19.85;12.48;;;1.30;99.90;;;;;;5045946;28;20217;-74
2020/12/10 00:42:00;;;;;;;21.30;15.00;;;1.30;99.90;;;;;;5045225;28;20228;-74
2020/12/10 00:44:26;;;;;;;20.00;12.90;;;1.30;99.90;;;;;;5045530;28;20212;-74
2020/12/10 00:46:52;;;;;;;20.27;12.82;;;1.20;99.90;;;;;;5045771;28;20216;-73
2020/12/10 00:49:20;;;;;;;22.67;11.55;;;1.20;99.90;;;;;;5045385;28;20586;-74
2020/12/10 00:51:48;;;;;;;20.00;12.80;;;1.20;99.90;;;;;;5045389;28;20211;-73
2020/12/10 00:54:14;;;;;;;19.10;13.18;;;1.20;99.90;;;;;;5045752;28;20204;-74
2020/12/10 00:56:55;;;;;;;19.55;12.63;;;1.20;99.90;;;;;;5047085;28;20209;-74
2020/12/10 00:59:21;;;;;;;17.08;11.73;;;1.30;99.90;;;;;;5119274;22;20312;-77
2020/12/10 01:01:47;;;;;;;19.35;12.98;;;1.30;99.90;;;;;;5048113;28;20221;-75
2020/12/10 01:04:14;;;;;;;21.45;13.25;;;1.30;99.90;;;;;;5049257;28;20207;-76
2020/12/10 01:06:41;;;;;;;20.33;12.85;;;1.20;99.90;;;;;;5048790;28;20215;-76
2020/12/10 01:09:11;;;;;;;20.35;12.35;;;1.20;99.90;;;;;;5049254;28;20212;-76
2020/12/10 01:11:37;;;;;;;17.98;13.32;;;1.20;99.90;;;;;;5048373;28;20209;-76
2020/12/10 01:14:05;;;;;;;17.52;12.18;;;1.20;99.90;;;;;;5048937;28;20218;-76
2020/12/10 01:16:32;;;;;;;19.65;12.45;;;1.20;99.90;;;;;;5048883;28;20201;-76
2020/12/10 01:18:58;;;;;;;17.50;12.40;;;1.20;99.90;;;;;;5049146;28;20201;-76
2020/12/10 01:21:29;;;;;;;21.08;13.07;;;1.20;99.90;;;;;;5048043;28;20209;-76
2020/12/10 01:23:55;;;;;;;20.98;14.18;;;1.30;99.90;;;;;;5048358;28;20225;-76
2020/12/10 01:26:23;;;;;;;21.33;13.32;;;1.20;99.90;;;;;;5048860;28;20223;-76
2020/12/10 01:28:50;;;;;;;20.48;12.63;;;1.20;99.90;;;;;;5048777;28;20208;-76
2020/12/10 01:31:16;;;;;;;18.08;11.95;;;1.20;99.90;;;;;;5048893;28;20200;-75
2020/12/10 01:33:42;;;;;;;19.70;12.85;;;1.20;99.90;;;;;;5048181;28;20217;-75
2020/12/10 01:36:08;;;;;;;20.05;12.65;;;1.20;99.90;;;;;;5049196;28;20204;-76
2020/12/10 01:38:35;;;;;;;19.27;12.90;;;1.20;99.90;;;;;;5048684;28;20201;-76
2020/12/10 01:41:01;;;;;;;18.02;12.27;;;1.20;99.90;;;;;;5048790;28;20584;-76
2020/12/10 01:43:28;;;;;;;19.38;12.70;;;1.20;99.90;;;;;;5048208;28;20232;-76
2020/12/10 01:45:54;;;;;;;20.80;12.00;;;1.20;99.90;;;;;;5048662;28;20576;-76
2020/12/10 01:48:20;;;;;;;17.38;11.98;;;1.10;99.90;;;;;;5048908;28;20300;-76
2020/12/10 01:50:46;;;;;;;16.85;10.93;;;1.20;99.90;;;;;;5048689;28;20709;-76
2020/12/10 01:53:13;;;;;;;17.85;12.40;;;1.20;99.90;;;;;;5048152;28;20214;-76
2020/12/10 01:55:39;;;;;;;18.75;11.73;;;1.10;99.90;;;;;;5047660;28;20554;-77
2020/12/10 01:58:05;;;;;;;18.55;12.32;;;1.10;99.90;;;;;;5046342;28;20205;-76
2020/12/10 02:00:32;;;;;;;19.65;12.35;;;1.10;99.90;;;;;;5048651;28;20213;-75
2020/12/10 02:02:58;;;;;;;19.67;12.43;;;1.10;99.90;;;;;;5047834;28;20228;-75
2020/12/10 02:05:24;;;;;;;17.33;12.05;;;1.10;99.90;;;;;;5048794;28;20202;-76
2020/12/10 02:07:51;;;;;;;18.67;11.15;;;1.20;99.90;;;;;;5048512;28;20215;-76
2020/12/10 02:10:17;;;;;;;19.55;12.85;;;1.10;99.90;;;;;;5048433;28;20209;-76
2020/12/10 02:12:43;;;;;;;18.73;11.98;;;1.10;99.90;;;;;;5047593;28;20217;-76
2020/12/10 02:15:10;;;;;;;19.38;12.68;;;1.10;99.90;;;;;;5048241;28;20205;-76
2020/12/10 02:17:37;;;;;;;20.92;12.93;;;1.10;99.90;;;;;;5048269;28;20209;-76
2020/12/10 02:20:04;;;;;;;20.23;12.82;;;1.10;99.90;;;;;;5048137;28;20197;-76
2020/12/10 02:22:30;;;;;;;18.20;11.70;;;1.10;99.90;;;;;;5047616;28;20240;-76
2020/12/10 02:24:57;;;;;;;18.95;12.07;;;1.10;99.90;;;;;;5048075;28;20212;-76
2020/12/10 02:27:23;;;;;;;19.20;13.27;;;1.10;99.90;;;;;;5048340;28;20596;-76
2020/12/10 02:29:49;;;;;;;18.73;12.30;;;1.10;99.90;;;;;;5048352;28;20206;-76
2020/12/10 02:32:15;;;;;;;18.63;12.90;;;1.10;99.90;;;;;;5047400;28;20594;-76
2020/12/10 02:34:42;;;;;;;18.90;12.13;;;1.10;99.90;;;;;;5051577;28;20208;-76
2020/12/10 02:37:08;;;;;;;20.60;13.25;;;1.10;99.90;;;;;;5051726;28;20201;-76
2020/12/10 02:39:34;;;;;;;20.42;12.52;;;1.10;99.90;;;;;;5051764;28;20208;-77
2020/12/10 02:42:01;;;;;;;17.90;12.52;;;1.10;99.90;;;;;;5050892;28;20593;-77
2020/12/10 02:44:27;;;;;;;17.13;11.77;;;1.10;99.90;;;;;;5051459;28;20205;-76
2020/12/10 02:46:53;;;;;;;18.30;12.20;;;1.10;99.90;;;;;;5051647;28;20205;-76
2020/12/10 02:49:20;;;;;;;20.10;13.27;;;1.00;99.90;;;;;;5051327;28;20205;-75
2020/12/10 02:51:46;;;;;;;18.90;12.88;;;1.00;99.90;;;;;;5052524;28;20197;-76
2020/12/10 02:54:12;;;;;;;20.23;12.30;;;1.10;99.90;;;;;;5051384;28;20681;-77
2020/12/10 02:56:38;;;;;;;21.98;13.40;;;1.10;99.90;;;;;;5051299;28;20205;-76
2020/12/10 02:59:05;;;;;;;18.92;13.10;;;1.10;99.90;;;;;;5051189;28;20205;-75
2020/12/10 03:01:35;;;;;;;21.15;13.77;;;1.10;99.90;;;;;;5050825;28;20687;-76
2020/12/10 03:04:02;;;;;;;20.85;13.55;;;1.10;99.90;;;;;;5051148;28;20632;-76
2020/12/10 03:06:28;;;;;;;18.38;11.68;;;1.10;99.90;;;;;;5051300;28;20664;-76
2020/12/10 03:08:54;;;;;;;19.98;12.38;;;1.20;99.90;;;;;;5051428;28;20201;-77
2020/12/10 03:11:20;;;;;;;20.63;13.05;;;1.20;99.90;;;;;;5051021;28;20580;-76
2020/12/10 03:13:46;;;;;;;21.05;13.32;;;1.20;99.90;;;;;;5050635;28;20217;-77
2020/12/10 03:16:13;;;;;;;21.95;13.23;;;1.20;99.90;;;;;;5050944;28;20574;-77
2020/12/10 03:18:40;;;;;;;22.15;13.65;;;1.10;99.90;;;;;;5051088;28;20212;-76
2020/12/10 03:21:06;;;;;;;22.05;14.75;;;1.20;99.90;;;;;;5051100;28;20608;-76
2020/12/10 03:23:32;;;;;;;22.50;14.02;;;1.10;99.90;;;;;;5050545;28;20240;-76
2020/12/10 03:25:58;;;;;;;26.85;14.23;;;1.00;99.90;;;;;;5051080;28;20676;-76
2020/12/10 03:28:25;;;;;;;25.90;17.58;;;1.00;99.90;;;;;;5050792;28;20603;-77
2020/12/10 03:30:51;;;;;;;30.50;15.90;;;1.00;99.90;;;;;;5050713;28;20213;-76
2020/12/10 03:33:18;;;;;;;22.88;13.75;;;1.10;99.90;;;;;;5050307;28;20232;-76
2020/12/10 03:35:44;;;;;;;29.13;14.52;;;1.10;99.90;;;;;;5050682;28;20205;-76
2020/12/10 03:38:10;;;;;;;28.65;16.45;;;1.00;99.90;;;;;;5050574;28;20205;-77
2020/12/10 03:40:37;;;;;;;34.92;18.48;;;1.00;99.90;;;;;;5050332;28;20205;-76
2020/12/10 03:43:03;;;;;;;29.60;17.25;;;1.00;99.90;;;;;;5050157;28;20236;-76
2020/12/10 03:45:29;;;;;;;25.25;14.32;;;1.00;99.90;;;;;;5049576;28;20236;-76
2020/12/10 03:47:55;;;;;;;32.42;16.50;;;1.00;99.90;;;;;;5050983;28;20212;-77
2020/12/10 03:50:22;;;;;;;30.67;16.05;;;1.00;99.90;;;;;;5050535;28;20823;-77
2020/12/10 03:52:48;;;;;;;32.53;17.08;;;1.00;99.90;;;;;;5049774;28;20247;-76
2020/12/10 03:55:15;;;;;;;37.45;17.08;;;1.00;99.90;;;;;;5050263;28;20602;-76
2020/12/10 03:57:41;;;;;;;30.55;16.80;;;1.10;99.90;;;;;;5050233;28;20209;-76
2020/12/10 04:00:07;;;;;;;30.63;18.85;;;1.10;99.90;;;;;;5049439;28;20592;-76
2020/12/10 04:02:33;;;;;;;35.58;17.38;;;1.10;99.90;;;;;;5048581;28;20229;-76
2020/12/10 04:04:59;;;;;;;36.08;16.63;;;1.10;99.90;;;;;;5049374;28;20699;-77
2020/12/10 04:07:27;;;;;;;43.15;18.60;;;1.00;99.90;;;;;;5048979;28;20197;-76
2020/12/10 04:09:53;;;;;;;32.75;18.80;;;1.00;99.90;;;;;;5049405;28;20205;-75
2020/12/10 04:12:19;;;;;;;40.05;18.42;;;1.00;99.90;;;;;;5048483;28;20227;-75
2020/12/10 04:14:45;;;;;;;36.95;17.75;;;0.90;99.90;;;;;;5049066;28;20205;-76
2020/12/10 04:17:11;;;;;;;35.78;19.08;;;0.90;99.90;;;;;;5049120;28;20205;-76
2020/12/10 04:19:38;;;;;;;38.42;19.30;;;0.90;99.90;;;;;;5048758;28;20205;-76
2020/12/10 04:22:04;;;;;;;32.25;16.83;;;0.90;99.90;;;;;;5048229;28;20233;-76
2020/12/10 04:24:31;;;;;;;39.03;19.35;;;1.00;99.90;;;;;;5048516;28;20204;-76
2020/12/10 04:26:57;;;;;;;41.92;20.05;;;1.00;99.90;;;;;;5048911;28;20208;-76
2020/12/10 04:29:23;;;;;;;36.80;17.75;;;1.00;99.90;;;;;;5048731;28;20670;-75
2020/12/10 04:31:49;;;;;;;39.35;19.40;;;1.00;99.90;;;;;;5048504;28;20212;-77
2020/12/10 04:34:16;;;;;;;40.33;18.88;;;1.00;99.90;;;;;;5049114;28;20205;-77
2020/12/10 04:36:42;;;;;;;32.70;18.25;;;1.00;99.90;;;;;;5048552;28;20212;-77
2020/12/10 04:39:08;;;;;;;32.67;18.38;;;1.00;99.90;;;;;;5048711;28;20205;-76
2020/12/10 04:41:36;;;;;;;32.70;16.30;;;1.10;99.90;;;;;;5047872;28;20209;-76
2020/12/10 04:44:03;;;;;;;31.13;17.52;;;1.00;99.90;;;;;;5048469;28;20221;-77
2020/12/10 04:46:30;;;;;;;35.28;17.00;;;1.00;99.90;;;;;;5048199;28;20212;-76
2020/12/10 04:48:57;;;;;;;35.65;18.60;;;1.10;99.90;;;;;;5048854;28;20209;-76
2020/12/10 04:51:24;;;;;;;31.38;17.83;;;1.00;99.90;;;;;;5048453;28;20208;-76
2020/12/10 04:53:51;;;;;;;30.98;17.70;;;1.00;99.90;;;;;;5047875;28;20221;-76
2020/12/10 04:56:17;;;;;;;37.75;17.98;;;1.00;99.90;;;;;;5048251;28;20201;-77
2020/12/10 04:58:45;;;;;;;37.20;18.00;;;1.00;99.90;;;;;;5029477;28;545109;-77
2020/12/10 05:01:14;;;;;;;34.33;17.17;;;1.00;99.90;;;;;;5050519;28;20456;-77
2020/12/10 05:03:45;;;;;;;38.78;17.80;;;1.00;99.90;;;;;;5049987;28;20233;-76
2020/12/10 05:06:12;;;;;;;31.77;16.13;;;1.10;99.90;;;;;;5049079;28;20228;-75
2020/12/10 05:08:38;;;;;;;35.20;18.17;;;1.10;99.90;;;;;;5047123;28;20213;-77
2020/12/10 05:11:05;;;;;;;35.05;16.35;;;1.10;99.90;;;;;;5047141;28;20228;-75
2020/12/10 05:13:31;;;;;;;30.92;16.67;;;1.00;99.90;;;;;;5047793;28;20217;-77
2020/12/10 05:15:58;;;;;;;35.42;18.05;;;1.00;99.90;;;;;;5048865;28;20201;-77
2020/12/10 05:18:24;;;;;;;32.15;16.88;;;1.00;99.90;;;;;;5048896;28;20212;-76
2020/12/10 05:20:52;;;;;;;31.30;16.63;;;1.00;99.90;;;;;;5049076;28;20213;-77
2020/12/10 05:23:29;;;;;;;31.27;17.48;;;1.00;99.90;;;;;;5048238;28;20231;-77
2020/12/10 05:25:56;;;;;;;37.17;17.13;;;1.00;99.90;;;;;;5048970;28;20211;-76
2020/12/10 05:28:24;;;;;;;31.52;16.27;;;0.90;99.90;;;;;;5048594;28;20204;-76
2020/12/10 05:31:05;;;;;;;37.15;18.15;;;0.90;99.90;;;;;;5048930;28;20215;-76
2020/12/10 05:33:31;;;;;;;31.98;17.35;;;1.00;99.90;;;;;;5047648;28;20213;-75
2020/12/10 05:36:09;;;;;;;40.00;18.23;;;0.90;99.90;;;;;;5048964;28;20232;-77
2020/12/10 05:38:55;;;;;;;33.05;16.88;;;0.90;99.90;;;;;;5048521;28;20243;-76
2020/12/10 05:41:23;;;;;;;31.67;17.08;;;0.80;99.90;;;;;;5048331;28;20684;-76
2020/12/10 05:43:50;;;;;;;29.60;17.23;;;0.90;99.90;;;;;;5050140;28;20231;-76
2020/12/10 05:46:19;;;;;;;39.58;18.80;;;0.90;99.90;;;;;;5069104;28;20206;-76
2020/12/10 05:48:47;;;;;;;33.30;16.83;;;0.90;99.90;;;;;;5069215;28;20204;-77
2020/12/10 05:51:19;;;;;;;39.08;19.15;;;0.80;99.90;;;;;;5069046;28;20208;-77
2020/12/10 05:53:47;;;;;;;34.22;17.77;;;0.80;99.90;;;;;;5068082;28;20584;-75
2020/12/10 05:56:15;;;;;;;34.92;19.08;;;0.80;99.90;;;;;;5068751;28;20220;-77
2020/12/10 05:58:49;;;;;;;37.85;17.83;;;0.80;99.90;;;;;;5068449;28;20566;-77
2020/12/10 06:01:33;;;;;;;32.70;17.88;;;0.80;99.90;;;;;;5069383;28;20215;-75
2020/12/10 06:04:01;;;;;;;30.98;17.00;;;0.70;99.90;;;;;;5068565;28;20216;-75
2020/12/10 06:06:28;;;;;;;36.20;19.63;;;0.70;99.90;;;;;;5068490;28;20688;-76
2020/12/10 06:09:00;;;;;;;34.05;18.85;;;0.70;99.90;;;;;;5070825;28;20203;-76
2020/12/10 06:11:27;;;;;;;34.50;19.77;;;0.70;99.90;;;;;;5071932;28;20204;-76
2020/12/10 06:14:00;;;;;;;34.50;19.25;;;0.80;99.90;;;;;;5071789;28;20220;-76
2020/12/10 06:16:27;;;;;;;35.58;19.52;;;0.80;99.90;;;;;;5071910;28;20200;-76
2020/12/10 06:19:02;;;;;;;30.80;17.85;;;0.80;99.90;;;;;;5072087;28;20686;-76
2020/12/10 06:21:38;;;;;;;32.35;18.00;;;0.80;99.90;;;;;;5071839;28;20196;-75
2020/12/10 06:24:33;;;;;;;28.65;17.75;;;0.80;99.90;;;;;;5071938;28;20216;-76
2020/12/10 06:27:01;;;;;;;31.67;17.02;;;0.80;99.90;;;;;;5072045;28;20208;-76
2020/12/10 06:29:28;;;;;;;26.15;16.92;;;0.80;99.90;;;;;;5071554;28;20215;-76
2020/12/10 06:32:10;;;;;;;29.33;16.92;;;0.80;99.90;;;;;;5071159;28;20216;-76
2020/12/10 06:34:42;;;;;;;36.38;18.08;;;0.80;99.90;;;;;;5071540;28;20208;-76
2020/12/10 06:37:13;;;;;;;31.00;17.50;;;0.80;99.90;;;;;;5071785;28;20208;-76
2020/12/10 06:39:40;;;;;;;30.88;16.52;;;0.80;99.90;;;;;;5071639;28;20209;-77
2020/12/10 06:42:06;;;;;;;31.77;18.20;;;0.80;99.90;;;;;;5070894;28;20639;-76
2020/12/10 06:44:32;;;;;;;31.23;18.80;;;0.80;99.90;;;;;;5071574;28;20198;-77
2020/12/10 06:46:58;;;;;;;29.38;16.67;;;0.80;99.90;;;;;;5071600;28;20205;-77
2020/12/10 06:49:29;;;;;;;29.60;17.65;;;0.80;99.90;;;;;;5064728;28;20215;-76
2020/12/10 06:52:17;;;;;;;29.73;17.50;;;0.80;99.90;;;;;;5050341;28;20315;-76
2020/12/10 06:55:06;;;;;;;29.75;17.95;;;0.90;99.90;;;;;;5051052;28;20204;-77
2020/12/10 06:57:58;;;;;;;30.50;18.13;;;0.90;99.90;;;;;;5051447;28;20209;-76
2020/12/10 07:00:40;;;;;;;30.90;17.83;;;0.90;99.90;;;;;;5051040;28;20204;-76
2020/12/10 07:03:34;;;;;;;32.70;18.05;;;0.90;99.90;;;;;;5048361;22;20221;-75
2020/12/10 07:06:18;;;;;;;29.80;17.92;;;0.80;99.90;;;;;;5031160;28;20193;-75
2020/12/10 07:08:59;;;;;;;29.35;17.05;;;0.90;99.90;;;;;;5031763;28;20299;-75
2020/12/10 07:11:30;;;;;;;29.55;18.70;;;0.80;99.90;;;;;;5060563;28;20211;-75
2020/12/10 07:13:57;;;;;;;33.33;18.23;;;0.80;99.90;;;;;;5071180;28;20197;-74
2020/12/10 07:16:30;;;;;;;30.83;17.77;;;0.80;99.90;;;;;;5070911;28;20617;-75
2020/12/10 07:18:56;;;;;;;29.30;16.33;;;0.90;99.90;;;;;;5070996;28;20211;-74
2020/12/10 07:21:24;;;;;;;31.33;17.98;;;0.90;99.90;;;;;;5070483;28;20200;-75
2020/12/10 07:23:50;;;;;;;31.33;17.95;;;0.90;99.90;;;;;;5068147;28;20240;-74
2020/12/10 07:26:17;;;;;;;36.17;18.95;;;0.90;99.90;;;;;;5050066;28;20196;-74
2020/12/10 07:28:45;;;;;;;35.17;19.35;;;0.90;99.90;;;;;;5050313;28;20200;-76
2020/12/10 07:31:16;;;;;;;32.42;17.85;;;1.00;99.90;;;;;;5049767;28;20212;-75
2020/12/10 07:33:43;;;;;;;32.80;17.65;;;0.90;99.90;;;;;;5050294;28;20678;-75
2020/12/10 07:36:10;;;;;;;30.50;17.25;;;0.90;99.90;;;;;;5047990;28;20209;-73
2020/12/10 07:38:43;;;;;;;34.65;18.88;;;1.00;99.90;;;;;;5055396;28;20228;-74
2020/12/10 07:41:09;;;;;;;29.85;18.50;;;1.00;99.90;;;;;;5069626;28;20211;-74
2020/12/10 07:43:44;;;;;;;32.17;17.40;;;1.00;99.90;;;;;;5068809;28;20228;-74
2020/12/10 07:46:10;;;;;;;35.08;18.40;;;1.00;99.90;;;;;;5067534;28;20553;-74
2020/12/10 07:48:37;;;;;;;31.05;17.90;;;1.00;99.90;;;;;;5069431;28;20201;-74
2020/12/10 07:51:03;;;;;;;33.50;17.60;;;1.00;99.90;;;;;;5068375;28;20292;-74
2020/12/10 07:53:29;;;;;;;30.88;17.90;;;1.00;99.90;;;;;;5035737;28;20229;-74
2020/12/10 07:56:00;;;;;;;28.52;16.02;;;1.00;99.90;;;;;;5066096;28;20200;-74
2020/12/10 07:58:34;;;;;;;34.25;17.60;;;1.00;99.90;;;;;;5068053;28;20208;-75
2020/12/10 08:01:03;;;;;;;31.23;16.77;;;1.00;99.90;;;;;;5067667;28;20200;-74
2020/12/10 08:03:43;;;;;;;31.52;17.95;;;1.10;99.90;;;;;;5066256;28;20615;-74
2020/12/10 08:06:10;;;;;;;27.30;15.90;;;1.00;99.90;;;;;;5068284;28;20201;-75
2020/12/10 08:08:40;;;;;;;29.27;16.50;;;1.00;99.90;;;;;;5067493;28;20208;-75
2020/12/10 08:11:13;;;;;;;30.42;16.33;;;1.00;99.90;;;;;;5068036;28;20202;-75
2020/12/10 08:13:58;;;;;;;25.48;15.45;;;1.00;99.90;;;;;;5067189;28;20220;-74
2020/12/10 08:16:36;;;;;;;26.45;15.80;;;1.00;99.90;;;;;;5066046;28;20204;-75
2020/12/10 08:19:14;;;;;;;27.83;16.75;;;1.00;99.90;;;;;;5068126;28;20208;-75
2020/12/10 08:21:41;;;;;;;30.10;17.20;;;1.00;99.90;;;;;;5066943;28;20204;-75
2020/12/10 08:24:08;;;;;;;25.38;15.60;;;1.00;99.90;;;;;;5067116;28;20220;-75
2020/12/10 08:26:35;;;;;;;27.02;15.82;;;1.10;99.90;;;;;;5067935;28;20254;-75
2020/12/10 08:29:02;;;;;;;29.00;16.77;;;1.10;99.90;;;;;;5067315;28;20713;-75
2020/12/10 08:31:29;;;;;;;23.13;15.10;;;1.10;99.90;;;;;;5065793;28;20679;-75
2020/12/10 08:33:56;;;;;;;27.85;16.67;;;1.00;99.90;;;;;;5067715;28;20224;-75
2020/12/10 08:36:24;;;;;;;27.38;16.70;;;1.00;99.90;;;;;;5067293;28;20215;-75
2020/12/10 08:38:51;;;;;;;30.15;16.90;;;1.00;99.90;;;;;;5067608;28;20261;-74
2020/12/10 08:41:24;;;;;;;26.95;16.13;;;1.00;99.90;;;;;;5067457;28;20200;-74
2020/12/10 08:43:59;;;;;;;30.67;17.25;;;1.00;99.90;;;;;;5066620;28;20237;-74
2020/12/10 08:46:26;;;;;;;30.40;16.20;;;1.10;99.90;;;;;;5067246;28;20214;-74
2020/12/10 08:48:54;;;;;;;28.35;16.20;;;1.10;99.90;;;;;;5067928;28;20204;-74
2020/12/10 08:51:20;;;;;;;28.38;14.18;;;1.10;99.90;;;;;;5067430;28;20200;-74
2020/12/10 08:53:48;;;;;;;24.23;15.60;;;1.20;99.90;;;;;;5066972;28;20223;-74
2020/12/10 08:56:23;;;;;;;27.67;15.02;;;1.20;99.90;;;;;;5068016;28;20223;-74
2020/12/10 08:58:50;;;;;;;18.13;10.48;;;1.20;99.90;;;;;;5068417;28;20586;-74
2020/12/10 09:01:17;;;;;;;15.23;9.40;;;1.10;99.90;;;;;;5066087;28;20228;-74
2020/12/10 09:03:44;;;;;;;16.67;10.70;;;1.10;99.90;;;;;;5066656;28;20248;-75
2020/12/10 09:06:10;;;;;;;15.65;10.18;;;1.10;99.90;;;;;;5067348;28;20220;-73
2020/12/10 09:08:37;;;;;;;13.70;9.20;;;1.10;99.90;;;;;;5066928;28;20208;-75
2020/12/10 09:11:03;;;;;;;12.43;7.97;;;1.00;99.90;;;;;;5063089;28;20214;-74
2020/12/10 09:13:29;;;;;;;12.85;8.10;;;0.90;99.90;;;;;;5063301;28;20221;-74
2020/12/10 09:15:56;;;;;;;12.75;8.10;;;0.80;99.90;;;;;;5028813;28;20271;-74
2020/12/10 09:18:23;;;;;;;9.93;7.90;;;0.90;99.90;;;;;;5027583;28;20206;-76
2020/12/10 09:20:49;;;;;;;12.85;8.40;;;1.00;99.90;;;;;;5027803;28;20300;-74
2020/12/10 09:23:16;;;;;;;9.52;6.68;;;1.10;99.90;;;;;;5025582;28;20713;-75
2020/12/10 09:25:42;;;;;;;8.82;6.68;;;1.10;99.90;;;;;;5062831;28;20606;-75
2020/12/10 09:28:09;;;;;;;11.50;7.30;;;1.00;99.90;;;;;;5066698;28;20675;-73
2020/12/10 09:30:36;;;;;;;8.88;7.35;;;1.10;99.90;;;;;;5065761;28;20371;-75
2020/12/10 09:33:04;;;;;;;12.02;7.90;;;1.20;99.90;;;;;;5066127;28;20251;-75
2020/12/10 09:35:31;;;;;;;10.93;7.95;;;1.40;99.90;;;;;;5066080;28;20197;-74
2020/12/10 09:38:00;;;;;;;12.52;7.18;;;1.60;99.90;;;;;;5066538;28;20578;-76
2020/12/10 09:40:27;;;;;;;8.57;7.20;;;1.70;99.90;;;;;;5066504;28;20568;-74
2020/12/10 09:42:53;;;;;;;8.52;6.43;;;1.80;99.90;;;;;;5067148;28;20310;-76
2020/12/10 09:45:20;;;;;;;10.32;8.00;;;1.80;99.90;;;;;;5070411;28;20207;-75
2020/12/10 09:47:46;;;;;;;9.80;7.18;;;2.00;99.90;;;;;;5070989;28;20291;-74
2020/12/10 09:50:22;;;;;;;10.57;8.05;;;2.10;99.90;;;;;;5070731;28;20207;-76
2020/12/10 09:52:56;;;;;;;10.52;6.90;;;2.20;99.90;;;;;;5069727;28;20223;-74
2020/12/10 09:55:38;;;;;;;9.50;6.70;;;2.20;99.90;;;;;;5068926;28;20203;-75
2020/12/10 09:58:04;;;;;;;9.48;7.30;;;2.20;99.90;;;;;;5070717;28;20228;-74
2020/12/10 10:00:30;;;;;;;12.30;7.10;;;2.30;99.90;;;;;;5069926;28;20254;-74
2020/12/10 10:02:56;;;;;;;12.07;7.15;;;2.30;99.90;;;;;;5071121;28;20228;-75
2020/12/10 10:05:22;;;;;;;11.10;7.60;;;2.30;99.90;;;;;;5070226;28;20205;-75
2020/12/10 10:07:49;;;;;;;10.88;7.55;;;2.20;99.90;;;;;;5069840;28;20664;-76
2020/12/10 10:10:16;;;;;;;10.05;7.00;;;2.20;99.90;;;;;;5070198;28;20561;-75
2020/12/10 10:12:42;;;;;;;10.40;8.05;;;2.20;99.90;;;;;;5070207;28;20228;-74
2020/12/10 10:15:08;;;;;;;12.10;8.15;;;2.20;99.90;;;;;;5069853;28;20204;-75
2020/12/10 10:17:34;;;;;;;8.68;7.38;;;2.00;99.90;;;;;;5069737;28;20208;-75
2020/12/10 10:20:01;;;;;;;9.25;7.47;;;2.00;99.90;;;;;;5033797;28;20209;-74
2020/12/10 10:22:27;;;;;;;9.30;6.57;;;2.00;99.90;;;;;;5029144;28;20715;-75
2020/12/10 10:24:55;;;;;;;11.43;8.02;;;2.00;99.90;;;;;;5038854;28;20228;-74
2020/12/10 10:27:21;;;;;;;11.75;8.10;;;2.00;99.90;;;;;;5040777;28;20291;-75
2020/12/10 10:29:47;;;;;;;11.95;8.40;;;2.00;99.90;;;;;;5049469;28;20296;-75
2020/12/10 10:32:14;;;;;;;11.85;8.52;;;1.90;99.90;;;;;;5049499;28;20224;-74
2020/12/10 10:34:40;;;;;;;15.98;9.48;;;1.90;99.90;;;;;;5049565;28;20571;-75
2020/12/10 10:37:06;;;;;;;13.48;9.95;;;1.90;99.90;;;;;;5049698;28;20209;-73
2020/12/10 10:39:32;;;;;;;15.95;10.75;;;1.90;99.90;;;;;;5049439;28;20669;-74
2020/12/10 10:41:59;;;;;;;17.70;10.98;;;1.90;99.90;;;;;;5049314;28;20221;-75
2020/12/10 10:44:25;;;;;;;19.10;10.27;;;1.90;99.90;;;;;;5053773;28;20228;-74
2020/12/10 10:46:53;;;;;;;19.35;12.30;;;2.00;99.90;;;;;;5069696;28;20207;-74
2020/12/10 10:49:19;;;;;;;19.55;11.43;;;2.00;99.90;;;;;;5069343;28;20679;-75
2020/12/10 10:51:48;;;;;;;20.77;12.57;;;2.10;99.90;;;;;;5069156;28;20741;-75
2020/12/10 10:54:14;;;;;;;20.35;13.68;;;2.10;99.90;;;;;;5069563;28;20204;-74
2020/12/10 10:56:40;;;;;;;22.35;12.23;;;2.20;99.90;;;;;;5069760;28;20243;-74
2020/12/10 10:59:08;;;;;;;19.17;12.65;;;2.20;99.90;;;;;;5069333;28;20204;-74
2020/12/10 11:01:34;;;;;;;19.15;12.43;;;2.10;99.90;;;;;;5068486;28;20220;-73
2020/12/10 11:04:01;;;;;;;27.63;13.75;;;2.10;99.90;;;;;;5068772;28;20224;-75
2020/12/10 11:06:27;;;;;;;19.30;12.77;;;2.10;99.90;;;;;;5068024;28;20211;-74
2020/12/10 11:08:53;;;;;;;21.83;12.63;;;2.10;99.90;;;;;;5069180;28;20675;-75
2020/12/10 11:11:20;;;;;;;20.65;12.95;;;2.20;99.90;;;;;;5070307;28;20211;-75
2020/12/10 11:13:47;;;;;;;19.85;12.25;;;2.20;99.90;;;;;;5067687;28;20224;-75
2020/12/10 11:16:14;;;;;;;18.05;12.85;;;2.20;99.90;;;;;;5068018;28;20574;-75
2020/12/10 11:18:40;;;;;;;20.10;13.32;;;2.20;99.90;;;;;;5068717;28;20205;-75
2020/12/10 11:21:07;;;;;;;22.63;12.73;;;2.20;99.90;;;;;;5068067;28;20207;-75
2020/12/10 11:23:33;;;;;;;19.33;12.90;;;2.20;99.90;;;;;;5067428;28;20236;-75
2020/12/10 11:25:59;;;;;;;19.00;12.30;;;2.20;99.90;;;;;;5067898;28;20204;-75
2020/12/10 11:28:27;;;;;;;21.50;13.20;;;2.10;99.90;;;;;;5067378;28;20238;-75
2020/12/10 11:30:53;;;;;;;24.20;14.93;;;2.10;99.90;;;;;;5068502;28;20216;-74
2020/12/10 11:33:20;;;;;;;24.33;13.20;;;1.90;99.90;;;;;;5067232;28;20230;-75
2020/12/10 11:35:46;;;;;;;19.30;12.43;;;1.90;99.90;;;;;;5068851;28;20204;-75
2020/12/10 11:38:13;;;;;;;20.75;12.70;;;2.00;99.90;;;;;;5068754;28;20200;-75
2020/12/10 11:40:41;;;;;;;20.50;12.60;;;2.10;99.90;;;;;;5068211;28;20228;-75
2020/12/10 11:43:07;;;;;;;21.83;13.15;;;2.10;99.90;;;;;;5066984;28;20643;-75
2020/12/10 11:45:33;;;;;;;16.58;11.52;;;2.20;99.90;;;;;;5067230;28;20211;-75
2020/12/10 11:48:03;;;;;;;17.95;11.90;;;2.30;99.90;;;;;;5068592;28;20212;-75
2020/12/10 11:50:31;;;;;;;18.20;12.27;;;2.30;99.90;;;;;;5068635;28;20208;-76
2020/12/10 11:52:57;;;;;;;19.38;12.40;;;2.30;99.90;;;;;;5068254;28;20289;-76
2020/12/10 11:55:24;;;;;;;24.52;13.32;;;2.20;99.90;;;;;;5068727;28;20200;-74
2020/12/10 11:57:50;;;;;;;18.80;11.90;;;2.20;99.90;;;;;;5068327;28;20589;-76
2020/12/10 12:00:16;;;;;;;21.02;13.70;;;2.30;99.90;;;;;;5067717;28;20549;-75
2020/12/10 12:02:44;;;;;;;22.15;14.75;;;2.20;99.90;;;;;;5067573;28;20239;-75
2020/12/10 12:05:10;;;;;;;19.63;12.82;;;2.30;99.90;;;;;;5050775;28;20695;-74
2020/12/10 12:07:39;;;;;;;18.45;12.20;;;2.20;99.90;;;;;;5047745;28;20632;-75
2020/12/10 12:10:06;;;;;;;19.83;12.60;;;2.20;99.90;;;;;;5047179;28;20574;-75
2020/12/10 12:12:35;;;;;;;19.60;12.35;;;2.20;99.90;;;;;;5046789;28;20593;-75
2020/12/10 12:15:02;;;;;;;23.90;13.13;;;2.30;99.90;;;;;;5048503;28;20236;-75
2020/12/10 12:17:28;;;;;;;24.05;15.57;;;2.30;99.90;;;;;;5048040;28;20807;-75
2020/12/10 12:19:54;;;;;;;17.40;12.10;;;2.20;99.90;;;;;;5047175;28;20208;-75
2020/12/10 12:22:21;;;;;;;22.48;14.13;;;2.20;99.90;;;;;;5046598;28;20598;-75
2020/12/10 12:24:51;;;;;;;18.90;13.27;;;2.30;99.90;;;;;;5053419;28;20401;-75
2020/12/10 12:27:17;;;;;;;21.65;13.60;;;2.30;99.90;;;;;;5066634;28;20600;-75
2020/12/10 12:29:43;;;;;;;19.98;13.07;;;2.20;99.90;;;;;;5037571;28;20574;-74
2020/12/10 12:32:09;;;;;;;23.77;14.93;;;2.10;99.90;;;;;;5045757;28;20707;-74
2020/12/10 12:34:36;;;;;;;19.27;12.55;;;2.10;99.90;;;;;;5066384;28;20711;-74
2020/12/10 12:37:02;;;;;;;19.70;12.77;;;2.10;99.90;;;;;;5067685;28;20200;-74
2020/12/10 12:39:29;;;;;;;19.73;13.30;;;2.20;99.90;;;;;;5066948;28;20204;-74
2020/12/10 12:41:56;;;;;;;22.05;13.07;;;2.20;99.90;;;;;;5065942;28;20474;-74